Time;durP1;ratioP1;P1;durP2;ratioP2;P2;SDS_P1;SDS_P2;PMS_P1;PMS_P2;Temp;Humidity;BMP_temperature;BMP_pressure;BME280_temperature;BME280_humidity;BME280_pressure;Samples;Min_cycle;Max_cycle;Signal;HPM_P1;HPM_P2
2023/02/06 00:00:58;;;;;;;23.05;7.20;;;3.80;99.90;;;;;;2094518;28;20107;-74
2023/02/06 00:01:58;;;;;;;20.48;6.55;;;3.80;99.90;;;;;;2093941;28;20027;-74
2023/02/06 00:02:59;;;;;;;17.55;6.22;;;3.80;99.90;;;;;;2092323;28;20032;-74
2023/02/06 00:04:00;;;;;;;20.13;7.13;;;3.70;99.90;;;;;;2088934;28;20025;-74
2023/02/06 00:05:01;;;;;;;23.35;7.97;;;3.80;99.90;;;;;;2090443;28;20086;-74
2023/02/06 00:06:01;;;;;;;22.55;6.68;;;3.70;99.90;;;;;;2089653;28;20029;-73
2023/02/06 00:07:02;;;;;;;17.83;6.32;;;3.80;99.90;;;;;;2089949;28;20599;-74
2023/02/06 00:08:03;;;;;;;24.88;6.38;;;3.70;99.90;;;;;;2090243;28;20029;-74
2023/02/06 00:09:04;;;;;;;20.65;6.68;;;3.70;99.90;;;;;;2089658;28;20020;-73
2023/02/06 00:10:05;;;;;;;16.60;5.80;;;3.70;99.90;;;;;;2092260;28;20036;-74
2023/02/06 00:11:07;;;;;;;17.63;5.60;;;3.70;99.90;;;;;;2095315;28;20024;-73
2023/02/06 00:12:08;;;;;;;22.15;6.65;;;3.70;99.90;;;;;;2092365;28;20447;-74
2023/02/06 00:13:08;;;;;;;22.35;7.68;;;3.70;99.90;;;;;;2091718;28;20113;-74
2023/02/06 00:14:09;;;;;;;19.48;6.07;;;3.60;99.90;;;;;;2092360;28;20013;-73
2023/02/06 00:15:10;;;;;;;22.52;6.65;;;3.70;99.90;;;;;;2090482;28;20094;-73
2023/02/06 00:16:31;;;;;;;19.55;6.22;;;3.70;99.90;;;;;;2092529;28;20024;-73
2023/02/06 00:17:36;;;;;;;19.05;6.38;;;3.60;99.90;;;;;;2090074;28;20100;-73
2023/02/06 00:18:36;;;;;;;23.10;6.05;;;3.60;99.90;;;;;;2090471;28;20890;-74
2023/02/06 00:19:37;;;;;;;19.38;5.53;;;3.60;99.90;;;;;;2090641;28;20727;-74
2023/02/06 00:20:37;;;;;;;23.08;6.35;;;3.50;99.90;;;;;;2089919;28;20124;-73
2023/02/06 00:21:38;;;;;;;20.90;5.93;;;3.50;99.90;;;;;;2093531;28;20028;-73
2023/02/06 00:22:39;;;;;;;24.33;6.25;;;3.50;99.90;;;;;;2094473;28;20147;-74
2023/02/06 00:23:40;;;;;;;22.40;6.13;;;3.50;99.90;;;;;;2091291;28;20029;-74
2023/02/06 00:24:40;;;;;;;20.63;5.75;;;3.50;99.90;;;;;;2091162;28;20048;-74
2023/02/06 00:25:41;;;;;;;21.58;5.90;;;3.50;99.90;;;;;;2094235;28;20074;-73
2023/02/06 00:26:41;;;;;;;20.83;6.40;;;3.50;99.90;;;;;;2091044;28;20029;-73
2023/02/06 00:27:42;;;;;;;17.00;5.57;;;3.50;99.90;;;;;;2092237;28;20762;-73
2023/02/06 00:28:43;;;;;;;26.13;6.13;;;3.40;99.90;;;;;;2092022;28;20017;-73
2023/02/06 00:29:43;;;;;;;18.55;6.40;;;3.50;99.90;;;;;;2090627;28;20074;-73
2023/02/06 00:30:47;;;;;;;17.33;5.72;;;3.40;99.90;;;;;;2092126;28;20063;-73
2023/02/06 00:31:47;;;;;;;25.42;7.38;;;3.40;99.90;;;;;;2090373;28;20576;-74
2023/02/06 00:32:48;;;;;;;18.85;6.35;;;3.40;99.90;;;;;;2093062;28;20075;-74
2023/02/06 00:33:48;;;;;;;19.90;6.82;;;3.40;99.90;;;;;;2094819;28;20021;-73
2023/02/06 00:34:49;;;;;;;20.42;5.75;;;3.40;99.90;;;;;;2094615;28;20078;-73
2023/02/06 00:35:49;;;;;;;19.85;5.95;;;3.40;99.90;;;;;;2093699;28;20072;-73
2023/02/06 00:36:50;;;;;;;17.02;5.35;;;3.40;99.90;;;;;;2091363;28;20424;-73
2023/02/06 00:37:51;;;;;;;17.38;5.97;;;3.40;99.90;;;;;;2091935;28;20940;-73
2023/02/06 00:38:52;;;;;;;17.17;5.47;;;3.40;99.90;;;;;;2093334;28;20784;-73
2023/02/06 00:39:52;;;;;;;20.00;6.60;;;3.30;99.90;;;;;;2091559;28;20016;-73
2023/02/06 00:40:53;;;;;;;22.45;6.07;;;3.30;99.90;;;;;;2091862;28;20031;-73
2023/02/06 00:41:54;;;;;;;19.83;5.28;;;3.30;99.90;;;;;;2093454;28;20017;-73
2023/02/06 00:42:55;;;;;;;21.98;6.30;;;3.30;99.90;;;;;;2092368;28;20013;-73
2023/02/06 00:43:55;;;;;;;20.02;5.97;;;3.30;99.90;;;;;;2091815;28;20056;-74
2023/02/06 00:44:56;;;;;;;19.75;6.07;;;3.30;99.90;;;;;;2095127;28;20029;-73
2023/02/06 00:45:57;;;;;;;18.88;5.55;;;3.30;99.90;;;;;;2092505;28;20025;-74
2023/02/06 00:46:57;;;;;;;24.40;5.88;;;3.30;99.90;;;;;;2093914;28;20025;-73
2023/02/06 00:47:58;;;;;;;20.52;5.43;;;3.30;99.90;;;;;;2090990;28;20020;-73
2023/02/06 00:48:59;;;;;;;21.27;6.50;;;3.30;99.90;;;;;;2092873;28;20496;-73
2023/02/06 00:49:59;;;;;;;20.73;6.25;;;3.30;99.90;;;;;;2090419;28;20052;-73
2023/02/06 00:51:00;;;;;;;17.95;5.57;;;3.20;99.90;;;;;;2093646;28;20491;-73
2023/02/06 00:52:00;;;;;;;27.77;6.93;;;3.20;99.90;;;;;;2091896;28;20096;-73
2023/02/06 00:53:01;;;;;;;20.50;5.60;;;3.20;99.90;;;;;;2093933;28;20487;-73
2023/02/06 00:54:01;;;;;;;21.38;5.53;;;3.20;99.90;;;;;;2093508;28;20008;-74
2023/02/06 00:55:02;;;;;;;21.83;5.38;;;3.20;99.90;;;;;;2094211;28;20031;-73
2023/02/06 00:56:03;;;;;;;18.00;5.32;;;3.10;99.90;;;;;;2094704;28;20025;-73
2023/02/06 00:57:03;;;;;;;22.25;5.68;;;3.10;99.90;;;;;;2091417;28;20118;-73
2023/02/06 00:58:04;;;;;;;15.77;5.40;;;3.10;99.90;;;;;;2091616;28;20040;-73
2023/02/06 00:59:05;;;;;;;21.63;6.10;;;3.10;99.90;;;;;;2089647;28;20545;-73
2023/02/06 01:00:07;;;;;;;32.63;7.10;;;3.10;99.90;;;;;;2092259;28;20412;-73
2023/02/06 01:01:08;;;;;;;15.75;5.28;;;3.10;99.90;;;;;;2096062;28;20028;-73
2023/02/06 01:02:08;;;;;;;21.63;5.82;;;3.10;99.90;;;;;;2091846;28;20107;-73
2023/02/06 01:03:10;;;;;;;24.35;6.38;;;3.10;99.90;;;;;;2091604;28;20034;-73
2023/02/06 01:04:10;;;;;;;23.98;5.78;;;3.10;99.90;;;;;;2093054;28;20100;-73
2023/02/06 01:05:11;;;;;;;22.10;5.88;;;3.10;99.90;;;;;;2091930;28;20036;-73
2023/02/06 01:06:11;;;;;;;19.65;5.28;;;3.10;99.90;;;;;;2094725;28;20048;-73
2023/02/06 01:07:12;;;;;;;20.58;5.93;;;3.10;99.90;;;;;;2094048;28;20757;-73
2023/02/06 01:08:12;;;;;;;21.98;6.32;;;3.00;99.90;;;;;;2094063;28;20036;-73
2023/02/06 01:09:13;;;;;;;18.30;6.15;;;3.10;99.90;;;;;;2093180;28;20088;-73
2023/02/06 01:10:13;;;;;;;22.33;6.25;;;3.00;99.90;;;;;;2090157;28;20121;-74
2023/02/06 01:11:18;;;;;;;18.55;5.47;;;3.00;99.90;;;;;;2090184;28;20040;-74
2023/02/06 01:12:19;;;;;;;26.23;6.20;;;3.00;99.90;;;;;;2090615;28;20123;-73
2023/02/06 01:13:19;;;;;;;16.15;5.72;;;3.00;99.90;;;;;;2092629;28;20017;-73
2023/02/06 01:14:20;;;;;;;19.75;5.20;;;3.00;99.90;;;;;;2092194;28;20045;-73
2023/02/06 01:15:20;;;;;;;18.98;6.18;;;3.00;99.90;;;;;;2091771;28;20039;-74
2023/02/06 01:16:23;;;;;;;22.23;6.75;;;3.00;99.90;;;;;;2094928;28;20032;-73
2023/02/06 01:17:24;;;;;;;19.92;6.78;;;3.00;99.90;;;;;;2092791;28;20039;-73
2023/02/06 01:18:24;;;;;;;18.30;5.68;;;3.00;99.90;;;;;;2092902;28;20028;-73
2023/02/06 01:19:25;;;;;;;19.60;6.45;;;3.00;99.90;;;;;;2091045;28;20037;-73
2023/02/06 01:20:25;;;;;;;28.83;7.20;;;2.90;99.90;;;;;;2092485;28;20456;-74
2023/02/06 01:21:26;;;;;;;22.80;5.63;;;2.90;99.90;;;;;;2095171;28;20027;-73
2023/02/06 01:22:27;;;;;;;21.65;6.50;;;2.90;99.90;;;;;;2093329;28;20035;-73
2023/02/06 01:23:27;;;;;;;21.70;7.43;;;2.90;99.90;;;;;;2091680;28;20028;-74
2023/02/06 01:24:28;;;;;;;26.00;6.65;;;2.90;99.90;;;;;;2092029;28;20028;-73
2023/02/06 01:25:28;;;;;;;22.58;7.07;;;2.90;99.90;;;;;;2090310;28;20073;-73
2023/02/06 01:26:29;;;;;;;22.63;6.43;;;2.90;99.90;;;;;;2092371;28;20602;-74
2023/02/06 01:27:29;;;;;;;18.30;5.68;;;2.90;99.90;;;;;;2094971;28;20028;-74
2023/02/06 01:28:30;;;;;;;21.50;6.55;;;2.90;99.90;;;;;;2093168;28;20020;-73
2023/02/06 01:29:30;;;;;;;17.88;5.43;;;2.90;99.90;;;;;;2092744;28;20027;-73
2023/02/06 01:30:31;;;;;;;23.02;6.15;;;2.80;99.90;;;;;;2091583;28;20047;-74
2023/02/06 01:31:32;;;;;;;26.67;7.28;;;2.90;99.90;;;;;;2091050;28;20126;-74
2023/02/06 01:32:40;;;;;;;27.58;6.72;;;2.80;99.90;;;;;;2091790;28;20055;-73
2023/02/06 01:33:40;;;;;;;25.95;6.75;;;2.80;99.90;;;;;;2091532;28;20017;-74
2023/02/06 01:34:41;;;;;;;21.42;6.20;;;2.80;99.90;;;;;;2091410;28;20454;-73
2023/02/06 01:35:41;;;;;;;22.80;6.38;;;2.80;99.90;;;;;;2090379;28;20028;-74
2023/02/06 01:36:42;;;;;;;21.02;5.88;;;2.80;99.90;;;;;;2090346;28;20528;-74
2023/02/06 01:37:42;;;;;;;21.60;6.55;;;2.80;99.90;;;;;;2092505;28;20012;-73
2023/02/06 01:38:44;;;;;;;17.88;6.13;;;2.80;99.90;;;;;;2092337;28;20055;-73
2023/02/06 01:39:44;;;;;;;21.65;6.63;;;2.70;99.90;;;;;;2090686;28;20066;-73
2023/02/06 01:40:45;;;;;;;18.95;6.00;;;2.80;99.90;;;;;;2092657;28;20453;-73
2023/02/06 01:41:45;;;;;;;20.48;6.45;;;2.70;99.90;;;;;;2090917;28;20622;-73
2023/02/06 01:42:46;;;;;;;28.60;6.43;;;2.70;99.90;;;;;;2092401;28;20078;-73
2023/02/06 01:44:12;;;;;;;22.80;6.57;;;2.70;99.90;;;;;;2090623;28;20044;-73
2023/02/06 01:45:31;;;;;;;21.10;5.72;;;2.70;99.90;;;;;;2087295;28;20524;-74
2023/02/06 01:46:32;;;;;;;20.90;5.75;;;2.70;99.90;;;;;;2089946;28;20033;-74
2023/02/06 01:47:32;;;;;;;19.60;6.07;;;2.70;99.90;;;;;;2091646;28;20028;-73
2023/02/06 01:48:39;;;;;;;20.45;6.40;;;2.60;99.90;;;;;;2094309;28;20031;-73
2023/02/06 01:49:49;;;;;;;23.63;6.65;;;2.60;99.90;;;;;;2091470;28;20496;-73
2023/02/06 01:50:52;;;;;;;19.60;6.05;;;2.60;99.90;;;;;;2091431;28;20124;-73
2023/02/06 01:52:05;;;;;;;20.25;5.75;;;2.60;99.90;;;;;;2093082;28;20520;-73
2023/02/06 01:53:06;;;;;;;18.92;6.32;;;2.60;99.90;;;;;;2095588;28;20141;-74
2023/02/06 01:54:08;;;;;;;22.00;6.80;;;2.60;99.90;;;;;;2094149;28;20016;-73
2023/02/06 01:55:08;;;;;;;24.63;7.72;;;2.60;99.90;;;;;;2096826;28;20028;-73
2023/02/06 01:56:10;;;;;;;19.75;6.75;;;2.60;99.90;;;;;;2093634;28;20035;-73
2023/02/06 01:57:11;;;;;;;22.10;6.53;;;2.50;99.90;;;;;;2092683;28;20044;-74
2023/02/06 01:58:18;;;;;;;17.67;6.25;;;2.60;99.90;;;;;;2093274;28;20476;-73
2023/02/06 01:59:19;;;;;;;19.30;6.22;;;2.50;99.90;;;;;;2092153;28;20032;-73
2023/02/06 02:00:20;;;;;;;22.27;6.40;;;2.50;99.90;;;;;;2091534;28;20078;-73
2023/02/06 02:01:21;;;;;;;19.27;6.60;;;2.50;99.90;;;;;;2093508;28;20037;-74
2023/02/06 02:02:24;;;;;;;21.05;6.38;;;2.50;99.90;;;;;;2089773;28;20028;-74
2023/02/06 02:03:27;;;;;;;21.98;6.57;;;2.50;99.90;;;;;;2091385;28;20059;-73
2023/02/06 02:04:31;;;;;;;17.08;6.30;;;2.50;99.90;;;;;;2094095;28;20116;-74
2023/02/06 02:05:32;;;;;;;16.73;6.30;;;2.50;99.90;;;;;;2090507;28;20031;-73
2023/02/06 02:06:34;;;;;;;18.90;6.50;;;2.50;99.90;;;;;;2093684;28;20713;-74
2023/02/06 02:07:39;;;;;;;22.05;6.50;;;2.50;99.90;;;;;;2093175;28;20149;-73
2023/02/06 02:08:42;;;;;;;38.20;9.18;;;2.50;99.90;;;;;;2092122;28;20025;-74
2023/02/06 02:09:43;;;;;;;27.50;7.55;;;2.50;99.90;;;;;;2090900;28;20020;-74
2023/02/06 02:10:44;;;;;;;19.52;6.90;;;2.50;99.90;;;;;;2089805;28;21067;-73
2023/02/06 02:11:44;;;;;;;20.33;7.50;;;2.40;99.90;;;;;;2092786;28;20020;-74
2023/02/06 02:12:45;;;;;;;26.27;8.43;;;2.40;99.90;;;;;;2081762;28;20052;-74
2023/02/06 02:13:47;;;;;;;20.15;7.55;;;2.40;99.90;;;;;;2084552;28;20017;-74
2023/02/06 02:14:48;;;;;;;23.25;7.95;;;2.40;99.90;;;;;;2095421;28;20028;-74
2023/02/06 02:15:59;;;;;;;19.45;7.70;;;2.40;99.90;;;;;;2092473;28;20237;-74
2023/02/06 02:16:59;;;;;;;22.10;7.18;;;2.40;99.90;;;;;;2090948;28;20073;-74
2023/02/06 02:18:23;;;;;;;21.52;7.22;;;2.40;99.90;;;;;;2088225;28;20020;-74
2023/02/06 02:19:44;;;;;;;24.90;8.32;;;2.40;99.90;;;;;;2092534;28;20064;-74
2023/02/06 02:20:58;;;;;;;25.15;7.53;;;2.40;99.90;;;;;;2082020;28;20041;-74
2023/02/06 02:22:24;;;;;;;26.67;6.75;;;2.30;99.90;;;;;;2090909;28;20448;-74
2023/02/06 02:23:31;;;;;;;25.67;7.15;;;2.30;99.90;;;;;;2089521;28;20716;-73
2023/02/06 02:25:04;;;;;;;23.13;6.93;;;2.30;99.90;;;;;;2093728;28;20599;-74
2023/02/06 02:26:49;;;;;;;26.90;7.25;;;2.30;99.90;;;;;;2093184;28;20028;-74
2023/02/06 02:28:25;;;;;;;21.90;6.63;;;2.30;99.90;;;;;;2093561;28;20032;-74
2023/02/06 02:30:06;;;;;;;21.15;6.93;;;2.20;99.90;;;;;;2089528;28;20029;-74
2023/02/06 02:31:19;;;;;;;19.00;6.25;;;2.20;99.90;;;;;;2077144;28;20196;-74
2023/02/06 02:32:28;;;;;;;21.85;6.50;;;2.20;99.90;;;;;;2090450;28;20021;-74
2023/02/06 02:33:47;;;;;;;21.50;7.72;;;2.20;99.90;;;;;;2089362;28;20029;-74
2023/02/06 02:35:12;;;;;;;22.40;6.32;;;2.20;99.90;;;;;;2091841;28;20760;-73
2023/02/06 02:36:45;;;;;;;20.92;7.00;;;2.20;99.90;;;;;;2090206;28;20029;-74
2023/02/06 02:37:55;;;;;;;25.15;6.72;;;2.10;99.90;;;;;;2089465;28;20023;-74
2023/02/06 02:39:10;;;;;;;22.90;7.03;;;2.10;99.90;;;;;;2089279;28;20028;-74
2023/02/06 02:40:23;;;;;;;19.63;6.60;;;2.10;99.90;;;;;;2088713;28;20028;-74
2023/02/06 02:41:38;;;;;;;22.50;7.22;;;2.10;99.90;;;;;;2090726;28;20496;-74
2023/02/06 02:42:57;;;;;;;24.30;8.38;;;2.10;99.90;;;;;;2092040;28;20027;-74
2023/02/06 02:44:07;;;;;;;19.48;6.95;;;2.10;99.90;;;;;;2091457;28;20029;-74
2023/02/06 02:45:27;;;;;;;22.42;7.40;;;2.10;99.90;;;;;;2093337;28;20016;-74
2023/02/06 02:46:31;;;;;;;;;;;2.10;99.90;;;;;;2091735;28;20033;-74
2023/02/06 02:47:45;;;;;;;28.13;7.10;;;2.00;99.90;;;;;;2092640;28;20314;-74
2023/02/06 02:48:50;;;;;;;22.42;7.57;;;2.00;99.90;;;;;;2090149;28;20054;-74
2023/02/06 02:49:52;;;;;;;20.67;6.78;;;2.00;99.90;;;;;;2092491;28;20024;-73
2023/02/06 02:50:54;;;;;;;20.60;6.05;;;2.00;99.90;;;;;;2091546;28;20097;-74
2023/02/06 02:51:55;;;;;;;23.42;7.05;;;2.00;99.90;;;;;;2091232;28;20043;-74
2023/02/06 02:52:58;;;;;;;24.08;7.18;;;2.00;99.90;;;;;;2091923;28;21348;-74
2023/02/06 02:53:58;;;;;;;23.95;7.90;;;2.00;99.90;;;;;;2090225;28;20469;-74
2023/02/06 02:54:59;;;;;;;24.67;7.18;;;2.00;99.90;;;;;;2092124;28;20613;-74
2023/02/06 02:56:00;;;;;;;27.17;8.15;;;2.00;99.90;;;;;;2093192;28;20035;-74
2023/02/06 02:57:06;;;;;;;26.52;7.30;;;2.00;99.90;;;;;;2092564;28;20070;-73
2023/02/06 02:58:15;;;;;;;21.70;6.70;;;2.00;99.90;;;;;;2093579;28;20040;-73
2023/02/06 02:59:43;;;;;;;17.33;6.35;;;2.00;99.90;;;;;;2090865;28;20953;-73
2023/02/06 03:00:48;;;;;;;24.13;6.70;;;2.00;99.90;;;;;;2087871;28;20497;-74
2023/02/06 03:02:04;;;;;;;25.60;8.10;;;2.00;99.90;;;;;;2094750;28;20133;-74
2023/02/06 03:03:07;;;;;;;20.33;7.25;;;2.00;99.90;;;;;;2090607;28;20025;-74
2023/02/06 03:04:16;;;;;;;25.83;7.35;;;2.00;99.90;;;;;;2089817;28;20017;-73
2023/02/06 03:05:21;;;;;;;27.17;7.35;;;2.00;99.90;;;;;;2090893;28;20384;-74
2023/02/06 03:06:52;;;;;;;23.25;7.30;;;1.90;99.90;;;;;;2089974;28;20033;-74
2023/02/06 03:08:01;;;;;;;19.52;6.93;;;1.90;99.90;;;;;;2091568;28;20025;-74
2023/02/06 03:09:30;;;;;;;23.42;7.25;;;1.90;99.90;;;;;;2099685;28;20078;-73
2023/02/06 03:10:55;;;;;;;23.35;7.38;;;1.90;99.90;;;;;;2086088;28;20037;-73
2023/02/06 03:12:22;;;;;;;22.52;7.32;;;1.90;99.90;;;;;;2089747;28;20068;-74
2023/02/06 03:13:55;;;;;;;17.67;6.15;;;1.90;99.90;;;;;;2091441;28;20043;-74
2023/02/06 03:15:02;;;;;;;22.05;7.00;;;1.80;99.90;;;;;;2090969;28;20020;-74
2023/02/06 03:16:32;;;;;;;24.88;7.20;;;1.80;99.90;;;;;;2090595;28;20024;-74
2023/02/06 03:17:38;;;;;;;23.02;7.78;;;1.80;99.90;;;;;;2089774;28;20024;-74
2023/02/06 03:18:47;;;;;;;28.45;8.05;;;1.80;99.90;;;;;;2091187;28;20029;-74
2023/02/06 03:19:53;;;;;;;20.73;7.60;;;1.80;99.90;;;;;;2093150;28;20025;-73
2023/02/06 03:20:55;;;;;;;29.95;8.30;;;1.80;99.90;;;;;;2091344;28;20362;-74
2023/02/06 03:21:55;;;;;;;25.60;7.95;;;1.80;99.90;;;;;;2090202;28;20025;-74
2023/02/06 03:22:57;;;;;;;33.45;8.32;;;1.80;99.90;;;;;;2092715;28;20447;-74
2023/02/06 03:24:03;;;;;;;27.23;7.93;;;1.80;99.90;;;;;;2094019;28;20032;-74
2023/02/06 03:25:09;;;;;;;25.70;8.52;;;1.80;99.90;;;;;;2090697;28;20021;-74
2023/02/06 03:26:14;;;;;;;22.05;7.05;;;1.80;99.90;;;;;;2091073;28;20031;-74
2023/02/06 03:27:16;;;;;;;25.23;7.47;;;1.80;99.90;;;;;;2090973;28;20048;-73
2023/02/06 03:28:23;;;;;;;26.70;8.15;;;1.80;99.90;;;;;;2092627;28;20098;-74
2023/02/06 03:29:25;;;;;;;30.33;8.65;;;1.80;99.90;;;;;;2088324;28;20119;-73
2023/02/06 03:30:28;;;;;;;26.27;8.70;;;1.80;99.90;;;;;;2088914;28;20067;-73
2023/02/06 03:31:38;;;;;;;20.73;7.57;;;1.80;99.90;;;;;;2091701;28;20033;-74
2023/02/06 03:32:44;;;;;;;27.80;8.73;;;1.80;99.90;;;;;;2090242;28;20552;-74
2023/02/06 03:33:57;;;;;;;28.70;8.70;;;1.80;99.90;;;;;;2087548;28;20017;-74
2023/02/06 03:35:21;;;;;;;28.38;8.82;;;1.80;99.90;;;;;;2091099;28;20021;-74
2023/02/06 03:36:21;;;;;;;32.65;8.18;;;1.80;99.90;;;;;;2095551;28;20032;-74
2023/02/06 03:37:23;;;;;;;30.70;8.85;;;1.80;99.90;;;;;;2093126;28;20108;-73
2023/02/06 03:38:26;;;;;;;25.02;7.00;;;1.70;99.90;;;;;;2092402;28;20099;-74
2023/02/06 03:39:27;;;;;;;27.20;7.72;;;1.70;99.90;;;;;;2089600;28;20090;-74
2023/02/06 03:40:28;;;;;;;20.63;6.75;;;1.70;99.90;;;;;;2089926;28;20016;-73
2023/02/06 03:41:33;;;;;;;20.77;6.57;;;1.80;99.90;;;;;;2093285;28;20559;-74
2023/02/06 03:42:41;;;;;;;24.10;7.45;;;1.80;99.90;;;;;;2091582;28;20024;-73
2023/02/06 03:43:44;;;;;;;26.15;8.88;;;1.80;99.90;;;;;;2090086;28;20025;-73
2023/02/06 03:44:51;;;;;;;24.60;7.55;;;1.80;99.90;;;;;;2092429;28;20025;-74
2023/02/06 03:45:55;;;;;;;25.55;8.35;;;1.70;99.90;;;;;;2088613;28;20053;-74
2023/02/06 03:46:58;;;;;;;23.08;8.27;;;1.80;99.90;;;;;;2088786;28;20025;-74
2023/02/06 03:48:04;;;;;;;31.40;8.70;;;1.70;99.90;;;;;;2092564;28;20028;-74
2023/02/06 03:49:07;;;;;;;30.13;8.95;;;1.80;99.90;;;;;;2092450;28;20028;-73
2023/02/06 03:50:09;;;;;;;23.30;7.63;;;1.80;99.90;;;;;;2089511;28;20668;-73
2023/02/06 03:51:16;;;;;;;25.33;8.02;;;1.70;99.90;;;;;;2091352;28;20079;-74
2023/02/06 03:52:22;;;;;;;25.55;8.15;;;1.70;99.90;;;;;;2090253;28;20700;-74
2023/02/06 03:53:25;;;;;;;31.02;8.38;;;1.70;99.90;;;;;;2089735;28;20119;-74
2023/02/06 03:54:27;;;;;;;21.13;8.13;;;1.70;99.90;;;;;;2091261;28;20388;-74
2023/02/06 03:55:29;;;;;;;23.40;7.80;;;1.70;99.90;;;;;;2090298;28;21801;-74
2023/02/06 03:56:38;;;;;;;25.92;7.90;;;1.70;99.90;;;;;;2090336;28;20158;-74
2023/02/06 03:57:41;;;;;;;34.58;8.48;;;1.70;99.90;;;;;;2094080;28;20795;-74
2023/02/06 03:58:42;;;;;;;24.33;7.47;;;1.70;99.90;;;;;;2093843;28;20072;-73
2023/02/06 03:59:42;;;;;;;29.73;9.00;;;1.70;99.90;;;;;;2090135;28;20024;-74
2023/02/06 04:00:45;;;;;;;22.83;7.20;;;1.70;99.90;;;;;;2093971;28;20470;-74
2023/02/06 04:01:54;;;;;;;29.27;8.32;;;1.70;99.90;;;;;;2092841;28;20115;-74
2023/02/06 04:02:55;;;;;;;23.55;7.80;;;1.70;99.90;;;;;;2092848;28;20087;-74
2023/02/06 04:03:57;;;;;;;21.10;7.45;;;1.70;99.90;;;;;;2096905;28;20025;-74
2023/02/06 04:04:57;;;;;;;30.60;8.77;;;1.60;99.90;;;;;;2096072;28;20038;-74
2023/02/06 04:05:58;;;;;;;25.90;7.93;;;1.70;99.90;;;;;;2093613;28;20090;-74
2023/02/06 04:07:06;;;;;;;26.90;8.13;;;1.70;99.90;;;;;;2094752;28;20563;-74
2023/02/06 04:08:06;;;;;;;20.90;7.68;;;1.60;99.90;;;;;;2094242;28;20083;-74
2023/02/06 04:09:07;;;;;;;29.38;9.60;;;1.70;99.90;;;;;;2091194;28;20029;-74
2023/02/06 04:10:08;;;;;;;32.50;8.35;;;1.70;99.90;;;;;;2092329;28;20029;-74
2023/02/06 04:11:08;;;;;;;23.63;8.05;;;1.70;99.90;;;;;;2093435;28;20866;-74
2023/02/06 04:12:09;;;;;;;23.20;7.68;;;1.60;99.90;;;;;;2093079;28;20465;-73
2023/02/06 04:13:09;;;;;;;23.48;7.80;;;1.70;99.90;;;;;;2095808;28;20528;-73
2023/02/06 04:14:10;;;;;;;25.35;8.35;;;1.70;99.90;;;;;;2093230;28;20487;-74
2023/02/06 04:15:10;;;;;;;25.17;8.02;;;1.60;99.90;;;;;;2092697;28;20109;-74
2023/02/06 04:16:11;;;;;;;27.98;9.45;;;1.60;99.90;;;;;;2091338;28;20024;-74
2023/02/06 04:17:12;;;;;;;23.35;8.70;;;1.70;99.90;;;;;;2094011;28;20835;-74
2023/02/06 04:18:13;;;;;;;27.70;8.73;;;1.60;99.90;;;;;;2095309;28;20550;-74
2023/02/06 04:19:14;;;;;;;24.27;8.43;;;1.60;99.90;;;;;;2093664;28;20582;-74
2023/02/06 04:20:14;;;;;;;21.65;8.15;;;1.60;99.90;;;;;;2091968;28;20024;-74
2023/02/06 04:21:14;;;;;;;28.80;10.02;;;1.60;99.90;;;;;;2090094;28;20056;-74
2023/02/06 04:22:15;;;;;;;29.45;9.10;;;1.60;99.90;;;;;;2095864;28;20025;-74
2023/02/06 04:23:16;;;;;;;24.88;8.20;;;1.60;99.90;;;;;;2092262;28;20091;-74
2023/02/06 04:24:17;;;;;;;32.00;9.57;;;1.60;99.90;;;;;;2091412;28;20056;-73
2023/02/06 04:25:17;;;;;;;27.98;9.18;;;1.60;99.90;;;;;;2091255;28;20021;-73
2023/02/06 04:26:18;;;;;;;23.38;8.25;;;1.60;99.90;;;;;;2090252;28;20025;-73
2023/02/06 04:27:18;;;;;;;29.80;8.27;;;1.60;99.90;;;;;;2092332;28;20034;-74
2023/02/06 04:28:19;;;;;;;26.85;8.85;;;1.60;99.90;;;;;;2089948;28;20021;-74
2023/02/06 04:29:20;;;;;;;28.45;7.70;;;1.60;99.90;;;;;;2091176;28;20052;-74
2023/02/06 04:30:20;;;;;;;26.30;8.32;;;1.60;99.90;;;;;;2092924;28;20036;-74
2023/02/06 04:31:21;;;;;;;22.27;8.30;;;1.50;99.90;;;;;;2091639;28;20373;-74
2023/02/06 04:32:21;;;;;;;29.05;9.30;;;1.60;99.90;;;;;;2093282;28;20086;-73
2023/02/06 04:33:22;;;;;;;18.90;7.97;;;1.50;99.90;;;;;;2097942;28;20035;-73
2023/02/06 04:34:23;;;;;;;21.15;6.90;;;1.50;99.90;;;;;;2093974;28;20033;-74
2023/02/06 04:35:23;;;;;;;25.77;8.02;;;1.50;99.90;;;;;;2093763;28;20028;-74
2023/02/06 04:36:24;;;;;;;26.67;8.48;;;1.50;99.90;;;;;;2091871;28;20375;-74
2023/02/06 04:37:24;;;;;;;22.15;7.85;;;1.50;99.90;;;;;;2089466;28;20037;-74
2023/02/06 04:38:25;;;;;;;33.85;9.35;;;1.50;99.90;;;;;;2095735;28;20099;-74
2023/02/06 04:39:26;;;;;;;25.25;8.43;;;1.50;99.90;;;;;;2092216;28;20059;-74
2023/02/06 04:40:27;;;;;;;25.77;9.30;;;1.50;99.90;;;;;;2094793;28;20031;-74
2023/02/06 04:41:27;;;;;;;21.40;7.65;;;1.50;99.90;;;;;;2094268;28;20520;-74
2023/02/06 04:42:28;;;;;;;24.80;8.02;;;1.50;99.90;;;;;;2091870;28;20033;-74
2023/02/06 04:43:28;;;;;;;25.13;8.07;;;1.50;99.90;;;;;;2091385;28;20103;-74
2023/02/06 04:44:29;;;;;;;22.35;8.10;;;1.50;99.90;;;;;;2092792;28;20032;-74
2023/02/06 04:45:30;;;;;;;23.25;8.23;;;1.50;99.90;;;;;;2091175;28;20027;-74
2023/02/06 04:46:30;;;;;;;27.17;9.23;;;1.50;99.90;;;;;;2093347;28;20024;-74
2023/02/06 04:47:31;;;;;;;31.45;8.60;;;1.50;99.90;;;;;;2092920;28;20022;-74
2023/02/06 04:48:31;;;;;;;29.80;9.45;;;1.50;99.90;;;;;;2091611;28;20036;-74
2023/02/06 04:49:32;;;;;;;27.20;8.98;;;1.50;99.90;;;;;;2090496;28;20089;-74
2023/02/06 04:50:33;;;;;;;36.67;9.02;;;1.50;99.90;;;;;;2087957;28;20580;-74
2023/02/06 04:51:33;;;;;;;30.60;8.68;;;1.40;99.90;;;;;;2091875;28;20021;-74
2023/02/06 04:52:34;;;;;;;25.35;7.65;;;1.40;99.90;;;;;;2092920;28;20056;-74
2023/02/06 04:53:35;;;;;;;27.75;8.98;;;1.40;99.90;;;;;;2091085;28;20853;-74
2023/02/06 04:54:35;;;;;;;28.02;8.05;;;1.40;99.90;;;;;;2090913;28;20099;-73
2023/02/06 04:55:36;;;;;;;28.48;8.13;;;1.40;99.90;;;;;;2092959;28;20131;-74
2023/02/06 04:56:36;;;;;;;27.73;7.93;;;1.40;99.90;;;;;;2092527;28;20029;-74
2023/02/06 04:57:37;;;;;;;23.60;7.68;;;1.40;99.90;;;;;;2091402;28;20039;-73
2023/02/06 04:58:38;;;;;;;22.45;7.63;;;1.40;99.90;;;;;;2091532;28;20040;-73
2023/02/06 04:59:39;;;;;;;23.38;7.45;;;1.40;99.90;;;;;;2090775;28;20098;-73
2023/02/06 05:00:39;;;;;;;25.38;8.98;;;1.40;99.90;;;;;;2094024;28;20109;-73
2023/02/06 05:01:40;;;;;;;25.33;8.13;;;1.40;99.90;;;;;;2092387;28;20119;-74
2023/02/06 05:02:40;;;;;;;30.55;8.68;;;1.40;99.90;;;;;;2092945;28;20017;-74
2023/02/06 05:03:41;;;;;;;26.98;8.10;;;1.40;99.90;;;;;;2091593;28;20883;-73
2023/02/06 05:04:41;;;;;;;18.88;7.82;;;1.40;99.90;;;;;;2093007;28;20035;-74
2023/02/06 05:05:42;;;;;;;21.85;7.55;;;1.30;99.90;;;;;;2093192;28;20059;-74
2023/02/06 05:06:42;;;;;;;25.08;7.93;;;1.40;99.90;;;;;;2091782;28;20024;-73
2023/02/06 05:07:43;;;;;;;26.27;7.70;;;1.40;99.90;;;;;;2096908;28;20062;-74
2023/02/06 05:08:43;;;;;;;20.40;7.15;;;1.40;99.90;;;;;;2090729;28;21511;-73
2023/02/06 05:09:45;;;;;;;22.35;8.02;;;1.40;99.90;;;;;;2082764;28;20029;-73
2023/02/06 05:10:45;;;;;;;21.02;7.18;;;1.40;99.90;;;;;;2092414;28;20027;-73
2023/02/06 05:11:46;;;;;;;19.98;7.10;;;1.40;99.90;;;;;;2092279;28;20059;-74
2023/02/06 05:12:49;;;;;;;25.55;7.28;;;1.40;99.90;;;;;;2093147;28;20024;-74
2023/02/06 05:13:50;;;;;;;21.73;8.30;;;1.40;99.90;;;;;;2091101;28;20021;-73
2023/02/06 05:14:50;;;;;;;23.85;7.65;;;1.40;99.90;;;;;;2090779;28;20048;-73
2023/02/06 05:15:51;;;;;;;21.23;7.18;;;1.40;99.90;;;;;;2092640;28;20111;-73
2023/02/06 05:16:51;;;;;;;24.10;7.35;;;1.40;99.90;;;;;;2091412;28;20021;-73
2023/02/06 05:17:53;;;;;;;26.08;7.13;;;1.40;99.90;;;;;;2094042;28;20016;-73
2023/02/06 05:18:55;;;;;;;17.88;6.80;;;1.40;99.90;;;;;;2089997;28;20025;-73
2023/02/06 05:19:55;;;;;;;24.45;7.40;;;1.40;99.90;;;;;;2093564;28;20032;-73
2023/02/06 05:20:56;;;;;;;20.20;7.63;;;1.30;99.90;;;;;;2092871;28;20028;-73
2023/02/06 05:21:56;;;;;;;28.02;7.57;;;1.40;99.90;;;;;;2092442;28;20036;-73
2023/02/06 05:22:57;;;;;;;21.40;6.95;;;1.40;99.90;;;;;;2089804;28;20036;-73
2023/02/06 05:23:58;;;;;;;23.65;7.55;;;1.30;99.90;;;;;;2092597;28;20441;-73
2023/02/06 05:24:58;;;;;;;23.75;6.88;;;1.30;99.90;;;;;;2095893;28;20021;-73
2023/02/06 05:25:59;;;;;;;28.27;7.57;;;1.40;99.90;;;;;;2092263;28;20446;-73
2023/02/06 05:27:00;;;;;;;23.60;7.18;;;1.30;99.90;;;;;;2092092;28;20032;-73
2023/02/06 05:28:05;;;;;;;19.60;6.88;;;1.30;99.90;;;;;;2092546;28;20081;-73
2023/02/06 05:29:05;;;;;;;24.02;7.70;;;1.30;99.90;;;;;;2092529;28;20059;-73
2023/02/06 05:30:06;;;;;;;27.67;7.32;;;1.30;99.90;;;;;;2095862;28;20032;-73
2023/02/06 05:31:07;;;;;;;23.60;7.30;;;1.30;99.90;;;;;;2091765;28;20024;-73
2023/02/06 05:32:08;;;;;;;26.60;7.30;;;1.30;99.90;;;;;;2085480;28;20032;-73
2023/02/06 05:33:08;;;;;;;28.35;7.95;;;1.30;99.90;;;;;;2093360;28;20031;-73
2023/02/06 05:34:09;;;;;;;28.52;7.65;;;1.30;99.90;;;;;;2089710;28;20021;-73